Time;durP1;ratioP1;P1;durP2;ratioP2;P2;SDS_P1;SDS_P2;PMS_P1;PMS_P2;Temp;Humidity;BMP_temperature;BMP_pressure;BME280_temperature;BME280_humidity;BME280_pressure;Samples;Min_cycle;Max_cycle;Signal;HPM_P1;HPM_P2
2023/04/24 03:01:25;;;;;;;;;;;20.40;51.40;;;;;;5513295;23;45998;-61
2023/04/24 03:03:51;;;;;;;;;;;20.40;51.40;;;;;;4925925;28;45458;-61
2023/04/24 03:06:16;;;;;;;;;;;20.40;51.40;;;;;;4956754;28;45475;-61
2023/04/24 03:08:42;;;;;;;;;;;20.40;51.40;;;;;;4946531;28;45277;-59
2023/04/24 03:11:07;;;;;;;;;;;20.40;51.50;;;;;;4931382;28;45159;-60
2023/04/24 03:13:33;;;;;;;;;;;20.40;51.40;;;;;;4935798;28;45475;-63
2023/04/24 03:15:59;;;;;;;;;;;20.40;51.50;;;;;;4942414;28;45856;-61
2023/04/24 03:18:25;;;;;;;;;;;20.40;51.50;;;;;;4938789;28;45365;-60
2023/04/24 03:20:50;;;;;;;;;;;20.40;51.50;;;;;;4944154;28;45149;-59
2023/04/24 03:23:16;;;;;;;;;;;20.40;51.50;;;;;;4933175;28;44895;-60
2023/04/24 03:25:42;;;;;;;;;;;20.40;51.50;;;;;;4943465;28;46464;-59
2023/04/24 03:28:08;;;;;;;;;;;20.30;51.40;;;;;;4946792;28;45647;-61
2023/04/24 03:30:33;;;;;;;;;;;20.40;51.50;;;;;;4919390;28;45274;-58
2023/04/24 03:32:59;;;;;;;;;;;20.40;51.40;;;;;;4949156;28;45397;-57
2023/04/24 03:35:24;;;;;;;;;;;20.40;51.50;;;;;;4926733;28;47843;-61
2023/04/24 03:37:50;;;;;;;;;;;20.30;51.40;;;;;;4933988;28;45548;-61
2023/04/24 03:40:15;;;;;;;;;;;20.30;51.40;;;;;;4928968;28;45503;-61
2023/04/24 03:42:41;;;;;;;;;;;20.30;51.40;;;;;;4951369;28;45409;-61
2023/04/24 03:45:07;;;;;;;;;;;20.40;51.50;;;;;;4930606;28;46470;-62
2023/04/24 03:47:32;;;;;;;;;;;20.30;51.40;;;;;;4952447;28;45384;-60
2023/04/24 03:49:58;;;;;;;;;;;20.30;51.40;;;;;;4948894;28;45475;-61
2023/04/24 03:52:23;;;;;;;;;;;20.30;51.40;;;;;;4945020;28;45261;-58
2023/04/24 03:54:49;;;;;;;;;;;20.30;51.50;;;;;;4929728;28;47036;-60
2023/04/24 03:57:14;;;;;;;;;;;20.30;51.40;;;;;;4951390;28;45871;-61
2023/04/24 03:59:40;;;;;;;;;;;20.30;51.40;;;;;;4936722;28;45663;-60
2023/04/24 04:02:05;;;;;;;;;;;20.30;51.40;;;;;;4918100;28;46426;-61
2023/04/24 04:04:31;;;;;;;;;;;20.30;51.50;;;;;;4953366;28;46416;-60
2023/04/24 04:06:56;;;;;;;;;;;20.30;51.50;;;;;;4948713;28;45973;-61
2023/04/24 04:09:21;;;;;;;;;;;20.30;51.50;;;;;;4933958;28;45078;-60
2023/04/24 04:11:47;;;;;;;;;;;20.30;51.50;;;;;;4928133;28;45377;-60
2023/04/24 04:14:13;;;;;;;;;;;20.30;51.50;;;;;;4935722;28;45333;-60
2023/04/24 04:16:38;;;;;;;;;;;20.30;51.50;;;;;;4921884;28;45993;-60
2023/04/24 04:19:04;;;;;;;;;;;20.30;52.10;;;;;;4929214;28;45530;-60
2023/04/24 04:21:31;;;;;;;;;;;20.30;51.50;;;;;;4924442;28;45370;-60
2023/04/24 04:23:56;;;;;;;;;;;20.30;51.50;;;;;;4944382;28;46405;-60
2023/04/24 04:26:25;;;;;;;;;;;20.30;51.60;;;;;;4936216;28;45793;-61
2023/04/24 04:28:51;;;;;;;;;;;20.30;51.50;;;;;;4945017;28;46741;-60
2023/04/24 04:31:16;;;;;;;;;;;20.30;51.50;;;;;;4920070;28;45557;-61
2023/04/24 04:33:42;;;;;;;;;;;20.30;51.50;;;;;;4948494;28;45325;-61
2023/04/24 04:36:08;;;;;;;;;;;20.30;51.50;;;;;;4947427;28;45540;-60
2023/04/24 04:38:34;;;;;;;;;;;20.30;51.50;;;;;;4928504;28;46857;-61
2023/04/24 04:41:00;;;;;;;;;;;20.30;51.50;;;;;;4931982;28;45469;-59
2023/04/24 04:43:26;;;;;;;;;;;20.30;51.50;;;;;;4931297;28;45382;-60
2023/04/24 04:45:51;;;;;;;;;;;20.30;51.60;;;;;;4923838;28;45137;-59
2023/04/24 04:48:18;;;;;;;;;;;20.30;51.50;;;;;;4928699;28;45202;-61
2023/04/24 04:50:44;;;;;;;;;;;20.30;51.60;;;;;;4929299;28;45704;-59
2023/04/24 04:53:09;;;;;;;;;;;20.30;51.60;;;;;;4959848;28;46111;-61
2023/04/24 04:55:35;;;;;;;;;;;20.30;51.60;;;;;;4946268;28;44747;-59
2023/04/24 04:58:00;;;;;;;;;;;20.30;51.60;;;;;;4914586;28;45689;-60
2023/04/24 05:00:27;;;;;;;;;;;20.30;51.60;;;;;;4942572;28;45318;-60
2023/04/24 05:02:52;;;;;;;;;;;20.30;51.60;;;;;;4938023;28;45504;-60
2023/04/24 05:05:18;;;;;;;;;;;20.30;51.60;;;;;;4948795;28;44933;-61
2023/04/24 05:07:43;;;;;;;;;;;20.30;51.60;;;;;;4928049;28;45225;-60
2023/04/24 05:10:09;;;;;;;;;;;20.30;51.60;;;;;;4942200;28;45784;-61
2023/04/24 05:12:34;;;;;;;;;;;20.30;51.60;;;;;;4930169;28;45842;-60
2023/04/24 05:15:00;;;;;;;;;;;20.30;51.60;;;;;;4931250;28;45407;-60
2023/04/24 05:17:25;;;;;;;;;;;20.30;51.60;;;;;;4942251;28;45275;-60
2023/04/24 05:19:51;;;;;;;;;;;20.30;51.60;;;;;;4931168;28;45494;-59
2023/04/24 05:22:18;;;;;;;;;;;20.30;52.20;;;;;;4948151;28;45393;-60
2023/04/24 05:24:43;;;;;;;;;;;20.30;52.20;;;;;;4931808;28;45131;-60
2023/04/24 05:27:09;;;;;;;;;;;20.30;51.60;;;;;;4925971;28;45233;-60
2023/04/24 05:29:34;;;;;;;;;;;20.30;51.60;;;;;;4945748;28;45334;-61
2023/04/24 05:32:00;;;;;;;;;;;20.30;51.60;;;;;;4937141;28;45751;-61
2023/04/24 05:34:26;;;;;;;;;;;20.30;51.60;;;;;;4931185;28;45482;-61
2023/04/24 05:36:51;;;;;;;;;;;20.30;51.60;;;;;;4943831;28;45205;-61
2023/04/24 05:39:17;;;;;;;;;;;20.30;51.60;;;;;;4946014;28;45005;-59
2023/04/24 05:41:42;;;;;;;;;;;20.20;51.60;;;;;;4925145;28;45359;-58
2023/04/24 05:44:08;;;;;;;;;;;20.20;51.70;;;;;;4932839;28;45612;-60
2023/04/24 05:46:33;;;;;;;;;;;20.20;51.60;;;;;;4950967;28;45766;-62
2023/04/24 05:48:59;;;;;;;;;;;20.20;51.70;;;;;;4913776;28;45403;-59
2023/04/24 05:51:25;;;;;;;;;;;20.20;51.70;;;;;;4940529;28;45525;-61
2023/04/24 05:53:51;;;;;;;;;;;20.20;51.70;;;;;;4946469;28;45550;-58
2023/04/24 05:56:16;;;;;;;;;;;20.20;51.70;;;;;;4941364;28;45383;-62
2023/04/24 05:58:42;;;;;;;;;;;20.20;51.70;;;;;;4949226;28;45527;-61
2023/04/24 06:01:07;;;;;;;;;;;20.30;51.70;;;;;;4938372;28;45323;-61
2023/04/24 06:03:33;;;;;;;;;;;20.30;51.60;;;;;;4955544;28;45300;-61
2023/04/24 06:05:58;;;;;;;;;;;20.30;51.60;;;;;;4926879;28;46524;-63
2023/04/24 06:08:24;;;;;;;;;;;20.30;51.60;;;;;;4959365;28;45301;-60
2023/04/24 06:10:49;;;;;;;;;;;20.30;51.60;;;;;;4908559;28;45939;-61
2023/04/24 06:13:15;;;;;;;;;;;20.30;51.50;;;;;;4937390;28;45795;-61
2023/04/24 06:15:41;;;;;;;;;;;20.30;51.50;;;;;;4941146;28;45652;-61
2023/04/24 06:18:06;;;;;;;;;;;20.40;51.60;;;;;;4954035;28;45624;-60
2023/04/24 06:20:32;;;;;;;;;;;20.40;51.60;;;;;;4948247;28;46756;-61
2023/04/24 06:22:57;;;;;;;;;;;20.40;51.60;;;;;;4956784;28;45555;-62
2023/04/24 06:25:29;;;;;;;;;;;20.40;51.50;;;;;;4927109;28;46544;-61
2023/04/24 06:27:55;;;;;;;;;;;20.40;51.90;;;;;;4929872;28;45480;-61
2023/04/24 06:30:20;;;;;;;;;;;20.40;51.60;;;;;;4945027;28;45908;-62
2023/04/24 06:32:46;;;;;;;;;;;20.40;51.60;;;;;;4945285;28;45268;-62
2023/04/24 06:35:12;;;;;;;;;;;20.40;51.60;;;;;;4930575;28;45975;-62
2023/04/24 06:37:41;;;;;;;;;;;20.50;51.60;;;;;;4948786;28;45561;-61
2023/04/24 06:40:06;;;;;;;;;;;20.40;51.60;;;;;;4951672;28;45203;-60
2023/04/24 06:42:32;;;;;;;;;;;20.50;51.70;;;;;;4899353;28;45441;-60
2023/04/24 06:44:57;;;;;;;;;;;20.50;51.70;;;;;;4950766;28;45499;-62
2023/04/24 06:47:23;;;;;;;;;;;20.50;51.70;;;;;;4939447;28;45450;-59
2023/04/24 06:49:50;;;;;;;;;;;20.50;51.70;;;;;;4948086;28;45813;-61
2023/04/24 06:52:16;;;;;;;;;;;20.50;51.60;;;;;;4927778;28;45905;-59
2023/04/24 06:54:41;;;;;;;;;;;20.50;51.60;;;;;;4951887;28;45620;-60
2023/04/24 06:57:08;;;;;;;;;;;20.50;51.60;;;;;;4945049;28;45565;-60
2023/04/24 06:59:33;;;;;;;;;;;20.60;51.70;;;;;;4933540;28;45247;-60
2023/04/24 07:01:59;;;;;;;;;;;20.60;51.60;;;;;;4940686;28;45849;-61
2023/04/24 07:04:24;;;;;;;;;;;20.60;51.60;;;;;;4955383;28;45298;-61
2023/04/24 07:06:51;;;;;;;;;;;20.60;51.60;;;;;;4911974;28;45764;-62
2023/04/24 07:09:18;;;;;;;;;;;20.70;51.50;;;;;;4958894;28;45241;-60
2023/04/24 07:11:44;;;;;;;;;;;20.70;51.50;;;;;;4952526;28;45302;-59
2023/04/24 07:14:10;;;;;;;;;;;20.70;51.40;;;;;;4935411;28;45205;-62
2023/04/24 07:16:35;;;;;;;;;;;20.70;51.40;;;;;;4926123;28;45482;-60
2023/04/24 07:19:01;;;;;;;;;;;20.70;51.30;;;;;;4946704;28;45536;-62
2023/04/24 07:21:27;;;;;;;;;;;20.80;51.40;;;;;;4949105;28;45319;-56
2023/04/24 07:23:52;;;;;;;;;;;20.70;51.30;;;;;;4935001;28;44814;-60
2023/04/24 07:26:18;;;;;;;;;;;20.80;51.40;;;;;;4945879;28;45372;-59
2023/04/24 07:28:43;;;;;;;;;;;20.80;51.40;;;;;;4934457;28;45567;-62
2023/04/24 07:31:08;;;;;;;;;;;20.80;51.30;;;;;;4944744;28;45604;-60
2023/04/24 07:33:35;;;;;;;;;;;20.80;51.40;;;;;;4933580;28;45176;-61
2023/04/24 07:36:01;;;;;;;;;;;20.80;51.40;;;;;;4946564;28;45303;-62
2023/04/24 07:38:26;;;;;;;;;;;20.80;51.40;;;;;;4934092;28;45898;-61
2023/04/24 07:40:52;;;;;;;;;;;20.80;51.40;;;;;;4930191;28;45945;-60
2023/04/24 07:43:19;;;;;;;;;;;20.80;51.40;;;;;;4938295;28;45600;-60
2023/04/24 07:45:45;;;;;;;;;;;20.90;51.30;;;;;;4953318;28;45721;-61
2023/04/24 07:48:10;;;;;;;;;;;20.90;51.20;;;;;;4933956;28;46431;-61
2023/04/24 07:50:36;;;;;;;;;;;20.90;51.20;;;;;;4950968;28;45413;-60
2023/04/24 07:53:02;;;;;;;;;;;20.90;51.10;;;;;;4936382;28;45050;-61
2023/04/24 07:55:27;;;;;;;;;;;21.00;51.20;;;;;;4950431;28;45958;-61
2023/04/24 07:57:53;;;;;;;;;;;21.00;51.20;;;;;;4934982;28;45609;-62
2023/04/24 08:00:18;;;;;;;;;;;21.00;51.20;;;;;;4928845;28;45245;-65
2023/04/24 08:02:44;;;;;;;;;;;21.00;51.10;;;;;;4900127;28;45430;-64
2023/04/24 08:05:09;;;;;;;;;;;21.10;51.10;;;;;;4931554;28;45923;-61
2023/04/24 08:07:35;;;;;;;;;;;21.10;51.00;;;;;;4933808;28;45946;-59
2023/04/24 08:10:01;;;;;;;;;;;21.10;51.00;;;;;;4951021;28;45591;-63
2023/04/24 08:12:27;;;;;;;;;;;21.20;50.90;;;;;;4932614;28;45258;-59
2023/04/24 08:14:53;;;;;;;;;;;21.20;50.90;;;;;;4932753;28;46062;-63
2023/04/24 08:17:18;;;;;;;;;;;21.20;51.00;;;;;;4944168;28;45686;-63
2023/04/24 08:19:48;;;;;;;;;;;21.20;51.00;;;;;;4936711;28;45298;-65
2023/04/24 08:22:14;;;;;;;;;;;21.20;51.00;;;;;;4948123;28;45014;-64
2023/04/24 08:24:39;;;;;;;;;;;21.20;51.10;;;;;;4950579;28;45562;-65
2023/04/24 08:27:05;;;;;;;;;;;21.20;51.00;;;;;;4949073;28;45492;-66
2023/04/24 08:29:30;;;;;;;;;;;21.20;51.00;;;;;;4952369;28;45356;-64
2023/04/24 08:31:56;;;;;;;;;;;21.20;51.10;;;;;;4944225;28;45319;-63
2023/04/24 08:34:21;;;;;;;;;;;21.20;51.00;;;;;;4953365;28;45661;-64
2023/04/24 08:36:47;;;;;;;;;;;21.20;51.00;;;;;;4945989;28;45434;-65
2023/04/24 08:39:12;;;;;;;;;;;21.20;51.00;;;;;;4952283;28;45382;-64
2023/04/24 08:41:38;;;;;;;;;;;21.20;51.00;;;;;;4931919;28;44828;-62
2023/04/24 08:44:03;;;;;;;;;;;21.30;51.00;;;;;;4920561;28;45294;-61
2023/04/24 08:46:29;;;;;;;;;;;21.30;51.00;;;;;;4944076;28;45643;-62
2023/04/24 08:48:55;;;;;;;;;;;21.30;51.00;;;;;;4934926;28;45123;-60
2023/04/24 08:51:20;;;;;;;;;;;21.30;51.00;;;;;;4913208;28;46154;-60
2023/04/24 08:53:46;;;;;;;;;;;21.30;51.00;;;;;;4933637;28;45081;-62
2023/04/24 08:56:12;;;;;;;;;;;21.30;51.00;;;;;;4896709;28;46647;-60
2023/04/24 08:58:37;;;;;;;;;;;21.30;51.00;;;;;;4953949;28;45161;-62
2023/04/24 09:01:03;;;;;;;;;;;21.30;51.00;;;;;;4942140;28;44792;-64
2023/04/24 09:03:28;;;;;;;;;;;21.30;50.90;;;;;;4917398;28;46021;-62
2023/04/24 09:05:54;;;;;;;;;;;21.30;51.00;;;;;;4925526;28;45520;-62
2023/04/24 09:08:19;;;;;;;;;;;21.30;51.00;;;;;;4930362;28;45403;-63
2023/04/24 09:10:45;;;;;;;;;;;21.30;51.00;;;;;;4950780;28;45090;-62
2023/04/24 09:13:11;;;;;;;;;;;21.30;51.00;;;;;;4952281;28;44779;-61
2023/04/24 09:15:40;;;;;;;;;;;21.30;51.00;;;;;;4950792;28;45984;-62
2023/04/24 09:18:05;;;;;;;;;;;21.30;51.00;;;;;;4950423;28;45264;-61
2023/04/24 09:20:31;;;;;;;;;;;21.40;51.00;;;;;;4944904;28;45324;-61
2023/04/24 09:22:57;;;;;;;;;;;21.40;51.00;;;;;;4946761;28;45030;-62
2023/04/24 09:25:22;;;;;;;;;;;21.40;50.90;;;;;;4950434;28;45609;-61
2023/04/24 09:27:48;;;;;;;;;;;21.40;50.90;;;;;;4955713;28;45253;-63
2023/04/24 09:30:13;;;;;;;;;;;21.50;50.90;;;;;;4948477;28;44747;-66
2023/04/24 09:32:39;;;;;;;;;;;21.50;50.80;;;;;;4931290;28;45854;-62
2023/04/24 09:35:08;;;;;;;;;;;21.50;50.80;;;;;;4928026;28;47021;-66
2023/04/24 09:37:37;;;;;;;;;;;21.50;50.80;;;;;;4946963;28;44668;-61
2023/04/24 09:40:08;;;;;;;;;;;21.50;50.80;;;;;;4947259;28;45812;-65
2023/04/24 09:42:34;;;;;;;;;;;21.50;51.00;;;;;;4914733;28;45474;-62
2023/04/24 09:44:59;;;;;;;;;;;21.50;50.80;;;;;;4933940;28;45616;-62
2023/04/24 09:47:25;;;;;;;;;;;21.50;50.80;;;;;;4928302;28;45386;-62
2023/04/24 09:49:50;;;;;;;;;;;21.50;50.80;;;;;;4949644;28;45283;-66
2023/04/24 09:52:16;;;;;;;;;;;21.50;50.80;;;;;;4942369;28;44984;-64
2023/04/24 09:54:41;;;;;;;;;;;21.50;50.80;;;;;;4940047;28;46179;-60
2023/04/24 09:57:07;;;;;;;;;;;21.60;50.80;;;;;;4951352;28;45194;-62
2023/04/24 09:59:32;;;;;;;;;;;21.60;50.90;;;;;;4948411;28;45541;-63
2023/04/24 10:01:59;;;;;;;;;;;21.60;50.90;;;;;;4939799;28;45241;-61
2023/04/24 10:04:25;;;;;;;;;;;21.50;50.80;;;;;;4936165;28;45435;-60
2023/04/24 10:06:51;;;;;;;;;;;21.60;50.80;;;;;;4925962;28;45541;-61
2023/04/24 10:09:17;;;;;;;;;;;21.60;50.70;;;;;;4939805;28;45073;-61
2023/04/24 10:11:44;;;;;;;;;;;21.60;50.70;;;;;;4915250;28;46132;-61
2023/04/24 10:14:13;;;;;;;;;;;21.60;50.70;;;;;;4941626;28;45664;-62
2023/04/24 10:16:40;;;;;;;;;;;21.60;50.60;;;;;;4916737;28;45369;-61
2023/04/24 10:19:05;;;;;;;;;;;21.60;50.50;;;;;;4940085;28;46323;-61
2023/04/24 10:21:31;;;;;;;;;;;21.70;50.60;;;;;;4917570;28;45284;-62
2023/04/24 10:23:56;;;;;;;;;;;21.60;50.50;;;;;;4921900;28;45918;-61
2023/04/24 10:26:22;;;;;;;;;;;21.60;50.60;;;;;;4917837;28;45830;-61
2023/04/24 10:28:47;;;;;;;;;;;21.60;50.50;;;;;;4910021;28;45704;-62
2023/04/24 10:31:14;;;;;;;;;;;21.60;50.50;;;;;;4930718;28;45693;-61
2023/04/24 10:33:41;;;;;;;;;;;21.60;50.50;;;;;;4924981;28;46211;-61
2023/04/24 10:36:07;;;;;;;;;;;21.60;50.50;;;;;;4918746;28;46409;-63
2023/04/24 10:38:32;;;;;;;;;;;21.60;50.50;;;;;;4938832;28;45252;-62
2023/04/24 10:41:09;;;;;;;;;;;21.60;50.50;;;;;;4920487;28;45614;-61
2023/04/24 10:43:34;;;;;;;;;;;21.60;50.50;;;;;;4910120;28;45652;-61
2023/04/24 10:46:00;;;;;;;;;;;21.60;50.50;;;;;;4916689;28;46864;-61
2023/04/24 10:48:26;;;;;;;;;;;21.60;50.50;;;;;;4945819;28;45245;-62
2023/04/24 10:50:52;;;;;;;;;;;21.60;50.50;;;;;;4941346;28;45189;-62
2023/04/24 10:53:23;;;;;;;;;;;21.60;50.50;;;;;;4944720;28;46837;-59
2023/04/24 10:55:48;;;;;;;;;;;21.60;50.50;;;;;;4940797;28;45238;-61
2023/04/24 10:58:16;;;;;;;0.63;0.63;;;21.60;50.30;;;;;;4946060;28;45281;-62
2023/04/24 11:00:42;;;;;;;1.10;0.90;;;21.60;50.40;;;;;;4917688;28;46060;-62
2023/04/24 11:03:28;;;;;;;1.25;0.98;;;21.60;50.40;;;;;;4908806;28;45387;-63
2023/04/24 11:06:00;;;;;;;1.17;0.90;;;21.60;50.40;;;;;;4897845;28;45341;-62
2023/04/24 11:08:32;;;;;;;1.38;1.00;;;21.60;50.40;;;;;;4946353;28;45305;-62
2023/04/24 11:11:07;;;;;;;1.02;0.93;;;21.60;50.50;;;;;;4939214;28;45732;-63
2023/04/24 11:13:55;;;;;;;1.33;1.02;;;21.60;50.50;;;;;;4914863;28;45457;-63
2023/04/24 11:16:21;;;;;;;1.20;0.90;;;21.60;50.40;;;;;;4936276;28;44685;-62
2023/04/24 11:18:54;;;;;;;2.65;1.13;;;21.70;50.50;;;;;;4926641;28;45666;-62
2023/04/24 11:21:20;;;;;;;1.00;0.90;;;21.70;50.50;;;;;;4922900;28;46457;-62
2023/04/24 11:23:46;;;;;;;2.85;0.88;;;21.70;50.40;;;;;;4927093;28;46367;-61
2023/04/24 11:26:12;;;;;;;3.08;0.80;;;21.70;50.40;;;;;;4940263;28;45309;-60
2023/04/24 11:28:45;;;;;;;0.93;0.80;;;21.70;50.40;;;;;;4947870;28;45486;-59
2023/04/24 11:31:36;;;;;;;1.42;0.95;;;21.70;50.40;;;;;;4920112;28;45793;-64
2023/04/24 11:34:12;;;;;;;3.08;1.08;;;21.70;50.30;;;;;;4943903;28;45693;-61
2023/04/24 11:36:38;;;;;;;1.02;0.88;;;21.70;50.40;;;;;;4921978;28;45387;-60
2023/04/24 11:39:04;;;;;;;0.90;0.73;;;21.70;50.40;;;;;;4927351;28;45003;-61
2023/04/24 11:41:30;;;;;;;0.95;0.85;;;21.80;50.40;;;;;;4911071;28;45644;-62
2023/04/24 11:43:56;;;;;;;0.93;0.77;;;21.80;50.40;;;;;;4910668;28;46747;-60
2023/04/24 11:46:21;;;;;;;1.20;1.00;;;21.80;50.40;;;;;;4916678;28;45268;-61
2023/04/24 11:48:47;;;;;;;1.08;0.90;;;21.80;50.40;;;;;;4910871;28;44798;-60
2023/04/24 11:51:13;;;;;;;0.80;0.80;;;21.70;50.40;;;;;;4903725;28;45367;-61
2023/04/24 11:53:39;;;;;;;1.23;0.90;;;21.70;50.40;;;;;;4924766;28;46178;-60
2023/04/24 11:56:05;;;;;;;1.13;1.02;;;21.70;50.40;;;;;;4937950;28;45047;-61
2023/04/24 11:58:38;;;;;;;1.02;0.95;;;21.80;50.40;;;;;;4924776;28;45588;-61
2023/04/24 12:01:04;;;;;;;2.20;1.02;;;21.80;50.50;;;;;;4899930;28;45682;-60
2023/04/24 12:03:30;;;;;;;1.08;0.98;;;21.80;50.60;;;;;;4922187;28;46006;-61
2023/04/24 12:06:09;;;;;;;0.57;0.57;;;21.70;50.40;;;;;;4890853;28;45507;-60
2023/04/24 12:08:34;;;;;;;1.40;1.02;;;21.70;50.40;;;;;;4943272;28;44673;-61
2023/04/24 12:11:01;;;;;;;0.98;0.85;;;21.80;51.10;;;;;;4918858;28;45679;-62
2023/04/24 12:13:26;;;;;;;1.20;1.08;;;21.80;50.40;;;;;;4922663;28;46319;-62
2023/04/24 12:15:52;;;;;;;1.08;0.90;;;21.80;50.40;;;;;;4935091;28;45089;-60
2023/04/24 12:18:17;;;;;;;1.00;0.77;;;21.80;50.40;;;;;;4942152;28;45635;-61
2023/04/24 12:20:43;;;;;;;2.90;1.10;;;21.80;50.40;;;;;;4919629;28;45440;-61
2023/04/24 12:23:08;;;;;;;1.20;1.00;;;21.80;50.40;;;;;;4921620;28;46469;-62
2023/04/24 12:25:37;;;;;;;1.60;0.90;;;21.80;50.40;;;;;;4907646;28;46208;-59
2023/04/24 12:28:05;;;;;;;0.95;0.80;;;21.80;50.40;;;;;;4941109;28;45129;-62
2023/04/24 12:30:35;;;;;;;1.42;0.85;;;21.80;50.40;;;;;;4912158;28;45820;-62
2023/04/24 12:33:02;;;;;;;0.98;0.70;;;21.80;50.40;;;;;;4921752;28;45479;-60
2023/04/24 12:35:28;;;;;;;1.02;0.88;;;21.80;50.40;;;;;;4917499;28;45346;-62
2023/04/24 12:37:54;;;;;;;0.90;0.73;;;21.80;50.30;;;;;;4921434;28;45162;-61
2023/04/24 12:40:20;;;;;;;1.02;0.90;;;21.80;50.40;;;;;;4921378;28;45741;-61
2023/04/24 12:42:50;;;;;;;1.10;0.77;;;21.80;50.40;;;;;;4924195;28;45916;-61
2023/04/24 12:45:16;;;;;;;0.60;0.60;;;21.90;50.50;;;;;;4930302;28;45727;-62
2023/04/24 12:47:42;;;;;;;1.55;1.00;;;21.80;50.40;;;;;;4939184;28;45485;-62
2023/04/24 12:50:14;;;;;;;1.00;0.90;;;21.80;50.40;;;;;;4923169;28;45193;-62
2023/04/24 12:52:40;;;;;;;0.80;0.80;;;21.90;50.40;;;;;;4911575;28;45691;-61
2023/04/24 12:55:07;;;;;;;1.45;1.17;;;21.90;50.40;;;;;;4922635;28;45365;-62
2023/04/24 12:57:33;;;;;;;0.88;0.70;;;21.90;50.40;;;;;;4941110;28;45196;-60
2023/04/24 12:59:59;;;;;;;1.00;0.88;;;21.90;50.40;;;;;;4911376;28;44929;-62
2023/04/24 13:02:25;;;;;;;2.30;1.00;;;21.90;50.40;;;;;;4932948;28;45444;-63
2023/04/24 13:04:51;;;;;;;0.75;0.70;;;21.90;50.40;;;;;;4923974;28;45387;-62
2023/04/24 13:07:17;;;;;;;0.85;0.80;;;21.90;50.40;;;;;;4939196;28;45257;-59
2023/04/24 13:09:44;;;;;;;1.05;0.85;;;21.90;50.40;;;;;;4909036;28;45703;-59
2023/04/24 13:12:10;;;;;;;1.05;0.93;;;21.80;50.40;;;;;;4922524;28;45927;-64
2023/04/24 13:14:35;;;;;;;0.95;0.75;;;21.90;50.50;;;;;;4901060;28;44762;-62
2023/04/24 13:17:01;;;;;;;0.82;0.80;;;21.90;50.40;;;;;;4901069;28;45892;-62
2023/04/24 13:19:27;;;;;;;2.25;1.10;;;21.90;50.50;;;;;;4916725;28;45742;-61
2023/04/24 13:21:53;;;;;;;0.80;0.80;;;21.90;50.40;;;;;;4920390;28;45378;-63
2023/04/24 13:24:19;;;;;;;1.33;0.80;;;21.90;50.50;;;;;;4923470;28;46019;-61
2023/04/24 13:26:45;;;;;;;1.33;0.90;;;21.90;50.40;;;;;;4918464;28;45701;-60
2023/04/24 13:29:10;;;;;;;0.68;0.68;;;21.90;50.50;;;;;;4942530;28;46502;-62
2023/04/24 13:31:36;;;;;;;0.95;0.82;;;21.90;50.40;;;;;;4932872;28;45487;-60
2023/04/24 13:34:05;;;;;;;0.88;0.80;;;21.90;50.50;;;;;;4924915;28;45825;-60
2023/04/24 13:36:31;;;;;;;2.58;0.85;;;21.90;50.40;;;;;;4901776;28;45582;-61
2023/04/24 13:38:57;;;;;;;0.63;0.63;;;21.90;50.40;;;;;;4941863;28;45797;-64
2023/04/24 13:41:22;;;;;;;3.03;0.90;;;21.90;50.40;;;;;;4919623;28;46906;-62
2023/04/24 13:43:48;;;;;;;0.80;0.75;;;21.90;50.30;;;;;;4941729;28;45544;-60
2023/04/24 13:46:13;;;;;;;0.80;0.75;;;21.90;50.30;;;;;;4914401;28;45635;-62
2023/04/24 13:48:39;;;;;;;1.08;0.80;;;21.90;50.30;;;;;;4942167;28;45366;-61
2023/04/24 13:51:04;;;;;;;;;;;21.90;50.30;;;;;;4937777;28;45442;-62
2023/04/24 13:53:30;;;;;;;;;;;21.90;50.30;;;;;;4925928;28;45884;-62
2023/04/24 13:55:56;;;;;;;;;;;21.90;50.30;;;;;;4919141;28;45306;-64
2023/04/24 13:58:21;;;;;;;;;;;21.90;50.30;;;;;;4940956;28;45232;-62
2023/04/24 14:00:47;;;;;;;;;;;22.00;50.40;;;;;;4916718;28;47955;-60
2023/04/24 14:03:12;;;;;;;;;;;22.00;50.30;;;;;;4938795;28;45590;-62
2023/04/24 14:05:38;;;;;;;;;;;22.00;50.30;;;;;;4936916;28;45262;-63
2023/04/24 14:08:03;;;;;;;;;;;22.00;50.30;;;;;;4940861;28;45811;-62
2023/04/24 14:10:29;;;;;;;;;;;22.00;50.30;;;;;;4921529;28;46638;-61
2023/04/24 14:12:54;;;;;;;;;;;22.00;50.30;;;;;;4923846;28;46285;-61
2023/04/24 14:15:20;;;;;;;;;;;22.00;50.30;;;;;;4931774;28;45230;-61
2023/04/24 14:17:45;;;;;;;;;;;22.00;50.30;;;;;;4935472;28;45857;-61
2023/04/24 14:20:12;;;;;;;;;;;22.10;50.30;;;;;;4936521;28;45809;-62
2023/04/24 14:22:37;;;;;;;;;;;22.00;50.20;;;;;;4922392;28;45841;-59
2023/04/24 14:25:04;;;;;;;;;;;22.10;50.30;;;;;;4940285;28;45702;-63
2023/04/24 14:27:30;;;;;;;;;;;22.10;50.30;;;;;;4936068;28;44857;-62
2023/04/24 14:29:55;;;;;;;;;;;22.00;50.30;;;;;;4922539;28;45678;-56
2023/04/24 14:32:21;;;;;;;;;;;22.00;50.30;;;;;;4931618;28;46743;-59
2023/04/24 14:34:46;;;;;;;;;;;22.10;50.40;;;;;;4925642;28;46253;-60
2023/04/24 14:37:12;;;;;;;;;;;22.10;50.40;;;;;;4913754;28;45863;-60
2023/04/24 14:39:37;;;;;;;;;;;22.00;50.20;;;;;;4923258;28;46473;-56
2023/04/24 14:42:03;;;;;;;;;;;22.00;50.40;;;;;;4948356;28;45516;-59
2023/04/24 14:44:28;;;;;;;;;;;22.00;50.40;;;;;;4923424;28;45578;-57
2023/04/24 14:46:54;;;;;;;;;;;22.00;50.50;;;;;;4933155;28;45297;-58
2023/04/24 14:49:20;;;;;;;;;;;22.00;50.50;;;;;;4919365;28;47107;-57
2023/04/24 14:51:45;;;;;;;;;;;22.00;50.50;;;;;;4950595;28;45181;-61
2023/04/24 14:54:11;;;;;;;;;;;21.90;50.50;;;;;;4920373;28;45438;-62
2023/04/24 14:56:36;;;;;;;;;;;21.90;50.40;;;;;;4950519;28;45257;-58
2023/04/24 14:59:02;;;;;;;;;;;22.00;50.40;;;;;;4943003;28;46456;-58
2023/04/24 15:01:27;;;;;;;;;;;22.00;50.40;;;;;;4914533;28;45642;-63
2023/04/24 15:03:53;;;;;;;;;;;21.90;50.40;;;;;;4923569;28;45734;-57
2023/04/24 15:06:18;;;;;;;;;;;22.00;50.40;;;;;;4936640;28;45631;-57
2023/04/24 15:08:44;;;;;;;;;;;22.00;50.40;;;;;;4940702;28;46206;-57
2023/04/24 15:11:10;;;;;;;;;;;22.00;50.40;;;;;;4934523;28;45638;-56
2023/04/24 15:13:35;;;;;;;;;;;21.90;50.40;;;;;;4922860;28;45861;-59
2023/04/24 15:16:01;;;;;;;;;;;21.90;50.40;;;;;;4933410;28;45775;-59
2023/04/24 15:18:28;;;;;;;;;;;21.90;50.40;;;;;;4920826;28;45543;-57
2023/04/24 15:20:54;;;;;;;;;;;21.90;50.40;;;;;;4934294;28;45547;-57
2023/04/24 15:23:19;;;;;;;;;;;21.90;50.40;;;;;;4920514;28;45628;-57
2023/04/24 15:25:45;;;;;;;;;;;21.90;50.40;;;;;;4918231;28;45628;-63
2023/04/24 15:28:11;;;;;;;;;;;21.90;50.40;;;;;;4912254;28;45674;-60
2023/04/24 15:30:36;;;;;;;;;;;21.90;50.50;;;;;;4934601;28;45288;-57
2023/04/24 15:33:02;;;;;;;;;;;21.90;50.50;;;;;;4939739;28;45406;-58
2023/04/24 15:35:27;;;;;;;;;;;21.90;50.50;;;;;;4935938;28;45671;-63
2023/04/24 15:37:53;;;;;;;;;;;21.90;50.50;;;;;;4941575;28;46425;-56
2023/04/24 15:40:19;;;;;;;;;;;21.90;50.50;;;;;;4936771;28;45193;-57
2023/04/24 15:42:44;;;;;;;;;;;21.90;50.60;;;;;;4924394;28;45234;-60
2023/04/24 15:45:10;;;;;;;;;;;21.80;50.50;;;;;;4937230;28;45453;-62
2023/04/24 15:47:36;;;;;;;;;;;21.80;50.50;;;;;;4938258;28;45451;-60
2023/04/24 15:50:05;;;;;;;;;;;21.80;50.50;;;;;;4953088;28;45576;-60
2023/04/24 15:52:30;;;;;;;;;;;21.80;50.50;;;;;;4921506;28;45691;-60
2023/04/24 15:54:56;;;;;;;;;;;21.80;50.50;;;;;;4956015;28;45860;-61
2023/04/24 15:57:21;;;;;;;;;;;21.80;50.50;;;;;;4933133;28;45476;-62
2023/04/24 15:59:47;;;;;;;;;;;21.70;50.50;;;;;;4918144;28;45715;-60
2023/04/24 16:02:17;;;;;;;;;;;21.70;50.50;;;;;;4931938;28;45120;-60
2023/04/24 16:04:44;;;;;;;;;;;21.70;50.60;;;;;;4941029;28;45749;-58
2023/04/24 16:07:09;;;;;;;;;;;21.70;50.60;;;;;;4918283;28;45757;-61
2023/04/24 16:09:35;;;;;;;;;;;21.70;50.60;;;;;;4942025;28;45678;-57
2023/04/24 16:12:01;;;;;;;;;;;21.70;50.60;;;;;;4937626;28;45590;-60
2023/04/24 16:14:26;;;;;;;;;;;21.70;50.60;;;;;;4908926;28;45334;-60
2023/04/24 16:16:52;;;;;;;;;;;21.70;50.70;;;;;;4928025;28;46315;-61
2023/04/24 16:19:17;;;;;;;;;;;21.70;50.70;;;;;;4940880;28;46234;-61
2023/04/24 16:21:43;;;;;;;;;;;21.70;50.70;;;;;;4936359;28;45742;-60
2023/04/24 16:24:08;;;;;;;;;;;21.60;50.60;;;;;;4942646;28;45265;-57
2023/04/24 16:26:34;;;;;;;;;;;21.60;50.70;;;;;;4947813;28;45625;-59
2023/04/24 16:28:59;;;;;;;;;;;21.60;50.70;;;;;;4901960;28;46755;-59
2023/04/24 16:31:25;;;;;;;;;;;21.60;50.60;;;;;;4914019;28;45666;-59
2023/04/24 16:33:51;;;;;;;;;;;21.60;50.60;;;;;;4955302;28;45010;-60
2023/04/24 16:36:16;;;;;;;;;;;21.60;50.60;;;;;;4937678;28;45841;-60
2023/04/24 16:38:42;;;;;;;;;;;21.60;50.60;;;;;;4917934;28;45380;-61
2023/04/24 16:41:07;;;;;;;;;;;21.60;50.60;;;;;;4933891;28;44726;-62
2023/04/24 16:43:33;;;;;;;;;;;21.60;50.60;;;;;;4936674;28;45413;-59
2023/04/24 16:45:59;;;;;;;;;;;21.60;50.60;;;;;;4932423;28;45247;-57
2023/04/24 16:48:25;;;;;;;;;;;21.60;50.60;;;;;;4904174;28;45481;-60
2023/04/24 16:50:50;;;;;;;;;;;21.60;50.60;;;;;;4905897;28;45262;-60